createdAt,value
2019-01-20T00:02:00.071Z,100441.77
2019-01-20T00:04:30.083Z,100441.77
2019-01-20T00:07:02.051Z,100441.98
2019-01-20T00:09:34.682Z,100441.98
2019-01-20T00:12:04.501Z,100427.63
2019-01-20T00:14:45.890Z,100427.63
2019-01-20T00:17:15.504Z,100431.44
2019-01-20T00:19:45.131Z,100435.73
2019-01-20T00:22:14.635Z,100439.34
2019-01-20T00:24:44.279Z,100434.98
2019-01-20T00:30:02.581Z,100441.63
2019-01-20T00:32:46.535Z,100437.33
2019-01-20T00:35:35.009Z,100429.56
2019-01-20T00:38:26.164Z,100429.56
2019-01-20T00:41:06.963Z,100425.16
2019-01-20T00:43:57.078Z,100425.16
2019-01-20T00:46:26.982Z,100430.08
2019-01-20T00:48:56.449Z,100450.06
2019-01-20T00:51:26.473Z,100447.63
2019-01-20T00:53:56.114Z,100445.69
2019-01-20T00:56:25.752Z,100444.50
2019-01-20T00:59:14.276Z,100457.76
2019-01-20T01:01:43.906Z,100457.76
2019-01-20T01:04:13.417Z,100457.76
2019-01-20T01:09:37.761Z,100468.69
2019-01-20T01:12:19.243Z,100464.83
2019-01-20T01:17:43.141Z,100471.33
2019-01-20T01:20:14.115Z,100471.81
2019-01-20T01:22:43.664Z,100474.05
2019-01-20T01:25:14.630Z,100476.23
2019-01-20T01:27:44.088Z,100469.70
2019-01-20T01:30:16.490Z,100472.06
2019-01-20T01:32:45.943Z,100467.83
2019-01-20T01:35:15.786Z,100473.58
2019-01-20T01:37:45.231Z,100461.81
2019-01-20T01:40:33.828Z,100472.75
2019-01-20T01:43:03.599Z,100481.50
2019-01-20T01:45:35.033Z,100479.27
2019-01-20T01:48:04.964Z,100479.27
2019-01-20T01:50:45.093Z,100480.19
2019-01-20T01:53:33.807Z,100494.16
2019-01-20T01:56:22.480Z,100483.50
2019-01-20T01:59:03.563Z,100490.22
2019-01-20T02:01:33.804Z,100490.22
2019-01-20T02:04:03.593Z,100484.60
2019-01-20T02:06:45.443Z,100481.27
2019-01-20T02:14:56.961Z,100495.35
2019-01-20T02:17:26.524Z,100506.10
2019-01-20T02:19:56.103Z,100500.13
2019-01-20T02:25:03.794Z,100492.28
2019-01-20T02:30:31.959Z,100501.71
2019-01-20T02:33:01.590Z,100504.96
2019-01-20T02:35:31.232Z,100498.46
2019-01-20T02:38:00.858Z,100497.32
2019-01-20T02:40:49.509Z,100506.92
2019-01-20T02:43:19.426Z,100506.92
2019-01-20T02:46:08.221Z,100509.15
2019-01-20T02:48:37.953Z,100508.93
2019-01-20T02:51:08.533Z,100508.93
2019-01-20T02:53:38.187Z,100512.08
2019-01-20T02:56:07.784Z,100512.08
2019-01-20T02:58:37.448Z,100508.30
2019-01-20T03:01:07.107Z,100519.43
2019-01-20T03:03:36.937Z,100512.98
2019-01-20T03:06:06.635Z,100512.98
2019-01-20T03:08:55.410Z,100527.81
2019-01-20T03:11:24.959Z,100537.50
2019-01-20T03:13:54.449Z,100537.50
2019-01-20T03:16:24.916Z,100532.11
2019-01-20T03:19:15.433Z,100534.38
2019-01-20T03:22:04.191Z,100531.18
2019-01-20T03:24:33.770Z,100531.18
2019-01-20T03:27:03.432Z,100532.27
2019-01-20T03:29:33.207Z,100535.86
2019-01-20T03:32:03.082Z,100540.30
2019-01-20T03:34:32.561Z,100533.17
2019-01-20T03:37:21.394Z,100545.02
2019-01-20T03:42:46.257Z,100547.06
2019-01-20T03:45:17.421Z,100547.92
2019-01-20T03:47:47.109Z,100547.92
2019-01-20T03:50:17.492Z,100549.30
2019-01-20T03:52:47.108Z,100547.05
2019-01-20T03:55:27.505Z,100549.04
2019-01-20T03:57:57.168Z,100554.91
2019-01-20T04:00:26.843Z,100559.58
2019-01-20T04:03:15.543Z,100553.97
2019-01-20T04:05:45.117Z,100556.72
2019-01-20T04:08:14.644Z,100556.24
2019-01-20T04:10:44.248Z,100553.99
2019-01-20T04:13:13.710Z,100560.37
2019-01-20T04:15:43.386Z,100560.37
2019-01-20T04:18:13.115Z,100561.09
2019-01-20T04:20:52.117Z,100565.64
2019-01-20T04:23:22.237Z,100567.92
2019-01-20T04:25:51.923Z,100576.53
2019-01-20T04:28:21.431Z,100569.84
2019-01-20T04:31:11.614Z,100579.32
2019-01-20T04:36:30.559Z,100582.80
2019-01-20T04:39:00.004Z,100583.05
2019-01-20T04:41:30.883Z,100577.80
2019-01-20T04:44:11.334Z,100582.10
2019-01-20T04:46:40.848Z,100581.80
2019-01-20T04:49:10.482Z,100574.41
2019-01-20T04:51:40.100Z,100577.91
2019-01-20T04:54:10.009Z,100578.04
2019-01-20T04:56:39.520Z,100584.77
2019-01-20T04:59:12.664Z,100587.05
2019-01-20T05:01:42.215Z,100595.80
2019-01-20T05:04:12.142Z,100595.08
2019-01-20T05:06:42.138Z,100594.28
2019-01-20T05:09:13.126Z,100595.00
2019-01-20T05:11:42.974Z,100591.05
2019-01-20T05:14:13.012Z,100598.60
2019-01-20T05:16:42.614Z,100595.02
2019-01-20T05:19:40.048Z,100601.12
2019-01-20T05:21:57.170Z,100595.77
2019-01-20T05:24:27.299Z,100595.75
2019-01-20T05:27:26.056Z,100596.73
2019-01-20T05:29:56.750Z,100606.85
2019-01-20T05:32:26.270Z,100603.53
2019-01-20T05:37:44.356Z,100609.73
2019-01-20T05:40:14.859Z,100612.34
2019-01-20T05:43:08.355Z,100608.89
2019-01-20T05:45:49.280Z,100609.59
2019-01-20T05:48:19.092Z,100612.20
2019-01-20T05:50:51.778Z,100614.24
2019-01-20T05:53:21.372Z,100614.69
2019-01-20T05:55:50.826Z,100614.92
2019-01-20T05:58:21.193Z,100623.87
2019-01-20T06:03:25.372Z,100618.86
2019-01-20T06:06:13.806Z,100616.09
2019-01-20T06:08:43.332Z,100616.09
2019-01-20T06:11:12.985Z,100614.31
2019-01-20T06:13:42.683Z,100610.97
2019-01-20T06:16:26.387Z,100623.23
2019-01-20T06:18:56.122Z,100624.66
2019-01-20T06:21:25.550Z,100630.98
2019-01-20T06:26:43.499Z,100629.03
2019-01-20T06:29:12.949Z,100631.55
2019-01-20T06:31:49.626Z,100625.22
2019-01-20T06:37:28.592Z,100629.11
2019-01-20T06:39:58.334Z,100624.23
2019-01-20T06:42:46.925Z,100626.23
2019-01-20T06:45:36.952Z,100625.98
2019-01-20T06:48:18.305Z,100630.23
2019-01-20T06:50:48.949Z,100624.89
2019-01-20T06:53:18.426Z,100632.70
2019-01-20T06:55:48.100Z,100641.50
2019-01-20T06:58:36.747Z,100642.55
2019-01-20T07:01:06.376Z,100645.53
2019-01-20T07:03:36.058Z,100650.61
2019-01-20T07:06:05.701Z,100650.36
2019-01-20T07:08:35.936Z,100651.66
2019-01-20T07:11:05.412Z,100654.59
2019-01-20T07:13:37.175Z,100659.67
2019-01-20T07:16:07.031Z,100658.71
2019-01-20T07:18:37.080Z,100665.09
2019-01-20T07:21:08.090Z,100668.23
2019-01-20T07:23:38.447Z,100670.47
2019-01-20T07:26:20.079Z,100669.37
2019-01-20T07:28:40.020Z,100672.34
2019-01-20T07:31:21.158Z,100681.71
2019-01-20T07:33:50.881Z,100683.59
2019-01-20T07:36:29.322Z,100688.59
2019-01-20T07:38:58.831Z,100690.27
2019-01-20T07:41:47.331Z,100690.38
2019-01-20T07:44:28.452Z,100699.89
2019-01-20T07:47:09.224Z,100698.22
2019-01-20T07:49:43.180Z,100706.91
2019-01-20T07:52:12.774Z,100703.35
2019-01-20T07:55:08.023Z,100716.30
2019-01-20T07:57:38.627Z,100706.46
2019-01-20T08:00:11.053Z,100710.55
2019-01-20T08:05:35.886Z,100718.95
2019-01-20T08:18:59.078Z,100728.37
2019-01-20T08:21:47.444Z,100723.88
2019-01-20T08:24:17.514Z,100723.81
2019-01-20T08:26:48.070Z,100730.17
2019-01-20T08:29:18.283Z,100726.25
2019-01-20T08:31:48.097Z,100727.97
2019-01-20T08:34:17.877Z,100735.36
2019-01-20T08:36:47.398Z,100742.42
2019-01-20T08:41:51.993Z,100747.61
2019-01-20T08:44:27.208Z,100751.10
2019-01-20T08:47:11.255Z,100751.47
2019-01-20T08:49:40.803Z,100755.44
2019-01-20T08:52:29.437Z,100756.28
2019-01-20T08:55:18.025Z,100765.02
2019-01-20T08:57:47.504Z,100765.38
2019-01-20T09:00:21.105Z,100765.16
2019-01-20T09:02:50.842Z,100762.31
2019-01-20T09:05:20.770Z,100764.94
2019-01-20T09:07:50.688Z,100762.09
2019-01-20T09:10:26.788Z,100769.63
2019-01-20T09:16:08.063Z,100764.76
2019-01-20T09:18:37.719Z,100766.57
2019-01-20T09:23:55.723Z,100769.69
2019-01-20T09:26:25.272Z,100772.66
2019-01-20T09:28:57.642Z,100777.93
2019-01-20T09:31:27.143Z,100774.22
2019-01-20T09:34:13.317Z,100781.98
2019-01-20T09:36:47.676Z,100780.69
2019-01-20T09:42:15.524Z,100777.72
2019-01-20T09:47:34.031Z,100788.58
2019-01-20T09:50:24.201Z,100793.09
2019-01-20T09:53:04.849Z,100796.79
2019-01-20T09:55:46.785Z,100796.79
2019-01-20T09:58:16.493Z,100796.91
2019-01-20T10:04:05.671Z,100798.89
2019-01-20T10:06:38.282Z,100798.89
2019-01-20T10:09:09.455Z,100797.34
2019-01-20T10:11:39.034Z,100797.34
2019-01-20T10:14:08.570Z,100802.36
2019-01-20T10:16:57.022Z,100801.61
2019-01-20T10:19:27.214Z,100801.61
2019-01-20T10:21:56.755Z,100797.66
2019-01-20T10:24:26.424Z,100797.66
2019-01-20T10:26:55.975Z,100795.95
2019-01-20T10:29:25.552Z,100798.22
2019-01-20T10:34:31.170Z,100793.98
2019-01-20T10:37:03.988Z,100793.98
2019-01-20T10:39:52.431Z,100796.56
2019-01-20T10:42:22.211Z,100796.56
2019-01-20T10:44:51.876Z,100791.83
2019-01-20T10:47:22.009Z,100792.39
2019-01-20T10:50:11.077Z,100784.06
2019-01-20T10:55:29.162Z,100790.83
2019-01-20T10:57:58.831Z,100790.83
2019-01-20T11:00:30.834Z,100790.22
2019-01-20T11:03:19.472Z,100785.45
2019-01-20T11:05:49.291Z,100785.45
2019-01-20T11:10:58.892Z,100793.21
2019-01-20T11:13:28.381Z,100793.16
2019-01-20T11:15:58.009Z,100796.37
2019-01-20T11:21:21.885Z,100793.34
2019-01-20T11:24:17.794Z,100786.16
2019-01-20T11:26:59.211Z,100787.83
2019-01-20T11:29:28.729Z,100787.83
2019-01-20T11:31:58.271Z,100795.24
2019-01-20T11:34:27.849Z,100788.08
2019-01-20T11:36:57.559Z,100795.13
2019-01-20T11:39:27.112Z,100796.80
2019-01-20T11:41:56.570Z,100803.86
2019-01-20T11:44:26.220Z,100803.86
2019-01-20T11:47:15.218Z,100792.66
2019-01-20T11:49:44.883Z,100792.66
2019-01-20T11:52:14.923Z,100800.75
2019-01-20T11:55:03.473Z,100807.38
2019-01-20T11:57:33.281Z,100807.38
2019-01-20T12:00:05.508Z,100807.75
2019-01-20T12:02:35.105Z,100807.75
2019-01-20T12:08:14.078Z,100821.38
2019-01-20T12:10:43.903Z,100821.38
2019-01-20T12:16:04.862Z,100809.55
2019-01-20T12:18:34.424Z,100820.31
2019-01-20T12:21:04.213Z,100815.66
2019-01-20T12:23:33.969Z,100817.48
2019-01-20T12:26:23.765Z,100814.81
2019-01-20T12:29:04.444Z,100814.81
2019-01-20T12:34:28.725Z,100806.50
2019-01-20T12:36:58.207Z,100815.22
2019-01-20T12:39:27.668Z,100815.22
2019-01-20T12:41:57.166Z,100813.44
2019-01-20T12:44:31.422Z,100813.44
2019-01-20T12:47:06.110Z,100817.03
2019-01-20T12:49:54.452Z,100810.80
2019-01-20T12:52:35.682Z,100805.54
2019-01-20T12:58:14.248Z,100811.41
2019-01-20T13:00:43.946Z,100805.54
2019-01-20T13:03:13.669Z,100799.31
2019-01-20T13:05:43.462Z,100800.98
2019-01-20T13:08:13.140Z,100803.62
2019-01-20T13:10:42.952Z,100800.50
2019-01-20T13:15:50.358Z,100807.94
2019-01-20T13:18:20.171Z,100811.45
2019-01-20T13:21:08.896Z,100803.01
2019-01-20T13:23:50.433Z,100796.33
2019-01-20T13:26:20.621Z,100796.33
2019-01-20T13:29:12.144Z,100809.30
2019-01-20T13:31:53.572Z,100809.30
2019-01-20T13:34:23.138Z,100810.89
2019-01-20T13:36:52.740Z,100810.89
2019-01-20T13:39:22.564Z,100812.45
2019-01-20T13:41:52.750Z,100808.54
2019-01-20T13:44:22.524Z,100812.09
2019-01-20T13:47:11.219Z,100819.86
2019-01-20T13:55:35.051Z,100819.89
2019-01-20T13:58:05.355Z,100821.33
2019-01-20T14:03:25.116Z,100820.37
2019-01-20T14:05:55.413Z,100821.12
2019-01-20T14:08:24.877Z,100819.69
2019-01-20T14:10:54.392Z,100822.55
2019-01-20T14:13:31.463Z,100826.61
2019-01-20T14:16:01.387Z,100829.27
2019-01-20T14:18:33.850Z,100826.04
2019-01-20T14:21:03.467Z,100827.70
2019-01-20T14:23:34.566Z,100829.64
2019-01-20T14:26:07.220Z,100827.48
2019-01-20T14:28:36.996Z,100828.43
2019-01-20T14:31:06.621Z,100830.59
2019-01-20T14:39:25.610Z,100837.40
2019-01-20T14:41:55.129Z,100834.66
2019-01-20T14:47:58.232Z,100836.08
2019-01-20T14:53:46.608Z,100847.73
2019-01-20T14:56:29.282Z,100846.87
2019-01-20T14:59:17.759Z,100847.36
2019-01-20T15:01:47.367Z,100856.15
2019-01-20T15:04:24.118Z,100852.55
2019-01-20T15:07:13.270Z,100848.50
2019-01-20T15:12:54.142Z,100853.20
2019-01-20T15:15:32.351Z,100848.28
2019-01-20T15:18:02.651Z,100857.53
2019-01-20T15:23:25.085Z,100854.70
2019-01-20T15:25:54.711Z,100854.89
2019-01-20T15:28:39.867Z,100848.40
2019-01-20T15:31:09.730Z,100850.50
2019-01-20T15:33:39.647Z,100852.95
2019-01-20T15:36:09.248Z,100846.61
2019-01-20T15:39:00.388Z,100847.80
2019-01-20T15:45:06.017Z,100848.58
2019-01-20T15:47:48.851Z,100848.89
2019-01-20T15:50:26.938Z,100850.81
2019-01-20T15:53:15.700Z,100848.30
2019-01-20T15:58:26.823Z,100851.96
2019-01-20T16:03:52.128Z,100852.06
2019-01-20T16:09:48.368Z,100850.96
2019-01-20T16:12:06.760Z,100847.50
2019-01-20T16:14:47.697Z,100851.06
2019-01-20T16:17:39.133Z,100848.55
2019-01-20T16:20:28.814Z,100850.20
2019-01-20T16:22:58.495Z,100848.83
2019-01-20T16:25:35.877Z,100850.95
2019-01-20T16:28:24.430Z,100848.64
2019-01-20T16:30:57.705Z,100854.34
2019-01-20T16:33:27.688Z,100855.39
2019-01-20T16:36:17.860Z,100849.89
2019-01-20T16:39:07.495Z,100856.06
2019-01-20T16:41:39.337Z,100850.70
2019-01-20T16:44:10.765Z,100860.33
2019-01-20T16:46:43.754Z,100857.07
2019-01-20T16:51:55.538Z,100865.92
2019-01-20T16:54:48.852Z,100859.86
2019-01-20T16:57:18.504Z,100859.69
2019-01-20T16:59:48.813Z,100862.03
2019-01-20T17:02:18.320Z,100857.37
2019-01-20T17:07:35.281Z,100862.56
2019-01-20T17:10:09.988Z,100867.90
2019-01-20T17:12:40.375Z,100866.69
2019-01-20T17:15:12.857Z,100860.91
2019-01-20T17:17:42.458Z,100863.39
2019-01-20T17:20:19.956Z,100864.16
2019-01-20T17:22:49.918Z,100867.66
2019-01-20T17:25:19.529Z,100866.65
2019-01-20T17:30:30.582Z,100863.68
2019-01-20T17:33:00.482Z,100862.38
2019-01-20T17:35:54.830Z,100871.28
2019-01-20T17:43:48.234Z,100865.59
2019-01-20T17:49:11.427Z,100869.00
2019-01-20T17:51:51.480Z,100866.30
2019-01-20T17:55:06.516Z,100873.31
2019-01-20T17:57:35.984Z,100871.82
2019-01-20T18:00:45.808Z,100870.83
2019-01-20T18:06:10.428Z,100878.22
2019-01-20T18:08:40.098Z,100879.70
2019-01-20T18:11:28.603Z,100880.39
2019-01-20T18:14:17.248Z,100884.41
2019-01-20T18:20:05.690Z,100878.06
2019-01-20T18:22:54.296Z,100879.00
2019-01-20T18:25:24.154Z,100887.30
2019-01-20T18:28:13.378Z,100877.97
2019-01-20T18:30:43.393Z,100885.25
2019-01-20T18:33:23.834Z,100885.09
2019-01-20T18:35:56.304Z,100892.19
2019-01-20T18:41:00.799Z,100889.30
2019-01-20T18:43:41.218Z,100889.85
2019-01-20T18:49:02.556Z,100886.50
2019-01-20T18:51:54.245Z,100890.04
2019-01-20T18:54:35.191Z,100889.66
2019-01-20T18:57:05.276Z,100887.52
2019-01-20T18:59:35.390Z,100887.89
2019-01-20T19:02:10.493Z,100894.42
2019-01-20T19:04:40.701Z,100891.81
2019-01-20T19:07:25.947Z,100896.66
2019-01-20T19:09:43.136Z,100896.66
2019-01-20T19:12:13.875Z,100894.89
2019-01-20T19:14:43.464Z,100893.95
2019-01-20T19:19:50.899Z,100901.89
2019-01-20T19:24:55.886Z,100901.61
2019-01-20T19:27:36.716Z,100902.92
2019-01-20T19:30:13.792Z,100899.00
2019-01-20T19:35:18.354Z,100896.58
2019-01-20T19:37:48.091Z,100906.65
2019-01-20T19:40:17.991Z,100903.75
2019-01-20T19:42:47.718Z,100899.27
2019-01-20T19:45:18.600Z,100902.48
2019-01-20T19:53:20.307Z,100914.32
2019-01-20T19:56:01.708Z,100911.80
2019-01-20T20:01:13.739Z,100910.41
2019-01-20T20:09:22.027Z,100914.13
2019-01-20T20:11:52.131Z,100917.77
2019-01-20T20:14:24.035Z,100907.87
2019-01-20T20:16:53.575Z,100903.95
2019-01-20T20:19:37.419Z,100915.70
2019-01-20T20:22:06.971Z,100910.58
2019-01-20T20:27:32.274Z,100910.70
2019-01-20T20:30:02.209Z,100916.39
2019-01-20T20:35:22.914Z,100908.63
2019-01-20T20:37:52.675Z,100910.70
2019-01-20T20:40:28.721Z,100912.94
2019-01-20T20:45:58.560Z,100910.22
2019-01-20T20:48:28.816Z,100915.72
2019-01-20T20:50:58.308Z,100918.53
2019-01-20T20:53:27.957Z,100917.59
2019-01-20T20:55:57.439Z,100919.66
2019-01-20T20:58:49.958Z,100916.94
2019-01-20T21:01:23.571Z,100922.25
2019-01-20T21:03:53.248Z,100923.90
2019-01-20T21:06:25.319Z,100927.23
2019-01-20T21:08:54.962Z,100926.05
2019-01-20T21:11:24.484Z,100933.49
2019-01-20T21:13:57.436Z,100920.08
2019-01-20T21:16:27.583Z,100923.98
2019-01-20T21:21:45.772Z,100919.98
2019-01-20T21:24:17.114Z,100928.66
2019-01-20T21:26:46.613Z,100923.52
2019-01-20T21:29:36.949Z,100924.83
2019-01-20T21:32:06.420Z,100918.86
2019-01-20T21:34:35.850Z,100927.69
2019-01-20T21:37:05.438Z,100926.02
2019-01-20T21:39:54.183Z,100926.39
2019-01-20T21:42:23.902Z,100922.56
2019-01-20T21:45:00.034Z,100930.02
2019-01-20T21:47:41.485Z,100928.33
2019-01-20T21:50:14.838Z,100923.87
2019-01-20T21:52:44.479Z,100923.02
2019-01-20T21:55:14.066Z,100919.11
2019-01-20T21:57:43.743Z,100918.65
2019-01-20T22:00:16.225Z,100916.88
2019-01-20T22:02:47.891Z,100919.87
2019-01-20T22:05:36.513Z,100920.71
2019-01-20T22:08:06.008Z,100918.10
2019-01-20T22:10:35.471Z,100918.48
2019-01-20T22:13:44.183Z,100916.71
2019-01-20T22:16:13.650Z,100920.63
2019-01-20T22:18:43.179Z,100916.33
2019-01-20T22:21:12.680Z,100915.32
2019-01-20T22:23:46.808Z,100908.05
2019-01-20T22:26:16.458Z,100910.10
2019-01-20T22:28:45.954Z,100907.12
2019-01-20T22:31:15.387Z,100907.29
2019-01-20T22:33:45.022Z,100905.52
2019-01-20T22:36:14.662Z,100912.50
2019-01-20T22:38:53.654Z,100911.58
2019-01-20T22:41:43.604Z,100909.27
2019-01-20T22:44:13.447Z,100898.36
2019-01-20T22:46:43.577Z,100900.59
2019-01-20T22:49:24.480Z,100903.03
2019-01-20T22:54:43.298Z,100904.13
2019-01-20T22:57:43.002Z,100904.50
2019-01-20T23:00:53.864Z,100900.59
2019-01-20T23:06:12.206Z,100902.36
2019-01-20T23:08:47.431Z,100904.68
2019-01-20T23:11:16.899Z,100901.27
2019-01-20T23:13:46.449Z,100902.91
2019-01-20T23:16:34.809Z,100899.17
2019-01-20T23:19:23.678Z,100897.70
2019-01-20T23:22:18.671Z,100896.95
2019-01-20T23:24:55.421Z,100897.87
2019-01-20T23:27:43.957Z,100896.91
2019-01-20T23:32:58.051Z,100885.47
2019-01-20T23:35:50.129Z,100891.98
2019-01-20T23:38:19.612Z,100892.33
2019-01-20T23:43:38.667Z,100886.77
2019-01-20T23:46:08.301Z,100883.95
2019-01-20T23:48:37.913Z,100884.13
2019-01-20T23:51:07.442Z,100880.30
2019-01-20T23:53:42.611Z,100881.98
2019-01-20T23:58:50.151Z,100879.29
